Canton Center, Connecticut
Current Conditions -  °F | °C
As of 10:51 AM on Monday 24 Nov 2014 (Local Time) from KBDL Reporting Station
Overcast Overcast  
Wind Chill: 64°   Ceiling: 2100
Heat Index: 64°   Visibility: 10mi
Dew Point: 60°   Wind: 14mph
Humidity: 87%   Direction: 180°S
Pressure: 29.65"   Gusts: 23mph
Location:  41.87°N, 72.91°W
Report Text: KBDL 241551Z 18012G20KT 10SM SCT013 OVC021 18/16 A2965 RMK AO2 RAE08 SLP040 P0001 T01780156
Loading
Personal Weather Stations






























Interactive Weather Map New forecast layout! Learn more

10-Day Weather Forecast

Advertisements
Track Severe Weather on mobile